METAR Data
IDs: Format: Raw Decoded Include TAF

Data at: 0603 UTC 07 Apr 2020

METAR for:KFRR (Front Royal/Warren C, VA, US)
Text:KFRR 070555Z AUTO 00000KT 10SM SCT070 11/03 A2999 RMK AO1
Temperature: 11.0°C ( 52°F)
Dewpoint: 3.0°C ( 37°F) [RH = 58%]
Pressure (altimeter):29.99 inches Hg (1015.7 mb)
Winds:calm
Visibility:10 or more sm (16+ km)
Ceiling:at least 12,000 feet AGL
Clouds: scattered clouds at 7000 feet AGL
QC Flag:automated observation with no human augmentation